sensor_id;sensor_type;location;lat;lon;timestamp;temperature;humidity
51613;DHT22;37694;51.748;14.326;2024-03-08T00:02:14;23.20;40.70
51613;DHT22;37694;51.748;14.326;2024-03-08T00:04:40;23.20;40.80
51613;DHT22;37694;51.748;14.326;2024-03-08T00:07:06;23.20;40.60
51613;DHT22;37694;51.748;14.326;2024-03-08T00:09:32;23.20;40.60
51613;DHT22;37694;51.748;14.326;2024-03-08T00:11:58;23.20;40.60
51613;DHT22;37694;51.748;14.326;2024-03-08T00:14:24;23.20;40.80
51613;DHT22;37694;51.748;14.326;2024-03-08T00:16:50;23.10;40.70
51613;DHT22;37694;51.748;14.326;2024-03-08T00:19:15;23.10;40.70
51613;DHT22;37694;51.748;14.326;2024-03-08T00:21:41;23.10;40.60
51613;DHT22;37694;51.748;14.326;2024-03-08T00:24:07;23.10;40.80
51613;DHT22;37694;51.748;14.326;2024-03-08T00:26:33;23.10;40.70
51613;DHT22;37694;51.748;14.326;2024-03-08T00:28:59;23.10;40.60
51613;DHT22;37694;51.748;14.326;2024-03-08T00:31:24;23.10;40.70
51613;DHT22;37694;51.748;14.326;2024-03-08T00:33:50;23.10;40.70
51613;DHT22;37694;51.748;14.326;2024-03-08T00:36:17;23.00;40.60
51613;DHT22;37694;51.748;14.326;2024-03-08T00:38:43;23.00;40.50
51613;DHT22;37694;51.748;14.326;2024-03-08T00:41:09;23.00;40.70
51613;DHT22;37694;51.748;14.326;2024-03-08T00:43:34;23.00;40.70
51613;DHT22;37694;51.748;14.326;2024-03-08T00:46:00;23.00;40.70
51613;DHT22;37694;51.748;14.326;2024-03-08T00:48:26;23.00;40.50
51613;DHT22;37694;51.748;14.326;2024-03-08T00:50:52;23.00;40.70
51613;DHT22;37694;51.748;14.326;2024-03-08T00:53:18;23.00;40.60
51613;DHT22;37694;51.748;14.326;2024-03-08T00:55:43;22.90;40.50
51613;DHT22;37694;51.748;14.326;2024-03-08T00:58:12;22.90;40.50
51613;DHT22;37694;51.748;14.326;2024-03-08T01:00:37;22.90;40.60
51613;DHT22;37694;51.748;14.326;2024-03-08T01:03:04;22.90;40.60
51613;DHT22;37694;51.748;14.326;2024-03-08T01:05:30;22.90;40.60
51613;DHT22;37694;51.748;14.326;2024-03-08T01:07:56;22.80;40.40
51613;DHT22;37694;51.748;14.326;2024-03-08T01:10:22;22.90;40.60
51613;DHT22;37694;51.748;14.326;2024-03-08T01:12:48;22.80;40.50
51613;DHT22;37694;51.748;14.326;2024-03-08T01:15:15;22.90;40.50
51613;DHT22;37694;51.748;14.326;2024-03-08T01:17:41;22.80;40.60
51613;DHT22;37694;51.748;14.326;2024-03-08T01:20:07;22.90;40.60
51613;DHT22;37694;51.748;14.326;2024-03-08T01:22:36;22.80;40.50
51613;DHT22;37694;51.748;14.326;2024-03-08T01:25:02;22.80;40.70
51613;DHT22;37694;51.748;14.326;2024-03-08T01:27:30;22.80;40.60
51613;DHT22;37694;51.748;14.326;2024-03-08T01:29:56;22.80;40.70
51613;DHT22;37694;51.748;14.326;2024-03-08T01:32:22;22.70;40.40
51613;DHT22;37694;51.748;14.326;2024-03-08T01:34:49;22.70;40.40
51613;DHT22;37694;51.748;14.326;2024-03-08T01:37:14;22.70;40.40
51613;DHT22;37694;51.748;14.326;2024-03-08T01:39:40;22.70;40.60
51613;DHT22;37694;51.748;14.326;2024-03-08T01:42:06;22.70;40.60
51613;DHT22;37694;51.748;14.326;2024-03-08T01:44:31;22.70;40.40
51613;DHT22;37694;51.748;14.326;2024-03-08T01:46:57;22.70;40.50
51613;DHT22;37694;51.748;14.326;2024-03-08T01:49:23;22.70;40.50
51613;DHT22;37694;51.748;14.326;2024-03-08T01:51:50;22.70;40.50
51613;DHT22;37694;51.748;14.326;2024-03-08T01:54:18;22.60;40.50
51613;DHT22;37694;51.748;14.326;2024-03-08T01:56:44;22.60;40.50
51613;DHT22;37694;51.748;14.326;2024-03-08T01:59:09;22.60;40.40
51613;DHT22;37694;51.748;14.326;2024-03-08T02:01:35;22.60;40.40
51613;DHT22;37694;51.748;14.326;2024-03-08T02:04:01;22.60;40.50
51613;DHT22;37694;51.748;14.326;2024-03-08T02:06:27;22.60;40.40
51613;DHT22;37694;51.748;14.326;2024-03-08T02:08:53;22.60;40.40
51613;DHT22;37694;51.748;14.326;2024-03-08T02:11:19;22.60;40.50
51613;DHT22;37694;51.748;14.326;2024-03-08T02:13:46;22.60;40.60
51613;DHT22;37694;51.748;14.326;2024-03-08T02:16:12;22.60;40.50
51613;DHT22;37694;51.748;14.326;2024-03-08T02:18:38;22.60;40.50
51613;DHT22;37694;51.748;14.326;2024-03-08T02:21:06;22.50;40.50
51613;DHT22;37694;51.748;14.326;2024-03-08T02:23:34;22.50;40.40
51613;DHT22;37694;51.748;14.326;2024-03-08T02:26:00;22.50;40.40
51613;DHT22;37694;51.748;14.326;2024-03-08T02:28:26;22.50;40.50
51613;DHT22;37694;51.748;14.326;2024-03-08T02:30:52;22.50;40.50
51613;DHT22;37694;51.748;14.326;2024-03-08T02:33:22;22.50;40.50
51613;DHT22;37694;51.748;14.326;2024-03-08T02:35:48;22.50;40.50
51613;DHT22;37694;51.748;14.326;2024-03-08T02:38:18;22.50;40.40
51613;DHT22;37694;51.748;14.326;2024-03-08T02:40:46;22.40;40.30
51613;DHT22;37694;51.748;14.326;2024-03-08T02:43:12;22.40;40.40
51613;DHT22;37694;51.748;14.326;2024-03-08T02:45:38;22.40;40.50
51613;DHT22;37694;51.748;14.326;2024-03-08T02:48:05;22.40;40.50
51613;DHT22;37694;51.748;14.326;2024-03-08T02:50:34;22.40;40.50
51613;DHT22;37694;51.748;14.326;2024-03-08T02:53:03;22.40;40.40
51613;DHT22;37694;51.748;14.326;2024-03-08T02:55:29;22.30;40.50
51613;DHT22;37694;51.748;14.326;2024-03-08T02:57:56;22.30;40.50
51613;DHT22;37694;51.748;14.326;2024-03-08T03:00:23;22.40;40.50
51613;DHT22;37694;51.748;14.326;2024-03-08T03:02:49;22.40;40.50
51613;DHT22;37694;51.748;14.326;2024-03-08T03:05:23;22.30;40.40
51613;DHT22;37694;51.748;14.326;2024-03-08T03:07:48;22.30;40.50
51613;DHT22;37694;51.748;14.326;2024-03-08T03:10:16;22.30;40.50
51613;DHT22;37694;51.748;14.326;2024-03-08T03:12:45;22.30;40.40
51613;DHT22;37694;51.748;14.326;2024-03-08T03:15:12;22.30;40.40
51613;DHT22;37694;51.748;14.326;2024-03-08T03:17:38;22.30;40.40
51613;DHT22;37694;51.748;14.326;2024-03-08T03:20:08;22.30;40.30
51613;DHT22;37694;51.748;14.326;2024-03-08T03:22:38;22.20;40.40
51613;DHT22;37694;51.748;14.326;2024-03-08T03:25:04;22.20;40.40
51613;DHT22;37694;51.748;14.326;2024-03-08T03:27:32;22.20;40.40
51613;DHT22;37694;51.748;14.326;2024-03-08T03:29:58;22.20;40.40
51613;DHT22;37694;51.748;14.326;2024-03-08T03:32:24;22.20;40.40
51613;DHT22;37694;51.748;14.326;2024-03-08T03:34:49;22.20;40.50
51613;DHT22;37694;51.748;14.326;2024-03-08T03:37:19;22.20;40.60
51613;DHT22;37694;51.748;14.326;2024-03-08T03:39:45;22.20;40.40
51613;DHT22;37694;51.748;14.326;2024-03-08T03:42:18;22.20;40.30
51613;DHT22;37694;51.748;14.326;2024-03-08T03:44:47;22.10;40.40
51613;DHT22;37694;51.748;14.326;2024-03-08T03:47:14;22.10;40.40
51613;DHT22;37694;51.748;14.326;2024-03-08T03:49:40;22.10;40.30
51613;DHT22;37694;51.748;14.326;2024-03-08T03:52:06;22.10;40.50
51613;DHT22;37694;51.748;14.326;2024-03-08T03:54:32;22.10;40.30
51613;DHT22;37694;51.748;14.326;2024-03-08T03:56:58;22.10;40.30
51613;DHT22;37694;51.748;14.326;2024-03-08T03:59:24;22.10;40.30
51613;DHT22;37694;51.748;14.326;2024-03-08T04:01:50;22.10;40.50
51613;DHT22;37694;51.748;14.326;2024-03-08T04:04:15;22.00;40.40
51613;DHT22;37694;51.748;14.326;2024-03-08T04:06:41;22.10;40.20
51613;DHT22;37694;51.748;14.326;2024-03-08T04:09:07;22.00;40.70
51613;DHT22;37694;51.748;14.326;2024-03-08T04:11:33;22.10;40.20
51613;DHT22;37694;51.748;14.326;2024-03-08T04:13:59;22.10;40.10
51613;DHT22;37694;51.748;14.326;2024-03-08T04:16:24;22.20;40.10
51613;DHT22;37694;51.748;14.326;2024-03-08T04:18:51;22.30;40.00
51613;DHT22;37694;51.748;14.326;2024-03-08T04:21:17;22.40;39.70
51613;DHT22;37694;51.748;14.326;2024-03-08T04:23:44;22.50;39.60
51613;DHT22;37694;51.748;14.326;2024-03-08T04:26:11;22.60;39.60
51613;DHT22;37694;51.748;14.326;2024-03-08T04:28:37;22.70;39.40
51613;DHT22;37694;51.748;14.326;2024-03-08T04:31:03;22.80;39.30
51613;DHT22;37694;51.748;14.326;2024-03-08T04:33:29;22.90;39.10
51613;DHT22;37694;51.748;14.326;2024-03-08T04:35:55;23.00;39.10
51613;DHT22;37694;51.748;14.326;2024-03-08T04:38:21;23.00;39.00
51613;DHT22;37694;51.748;14.326;2024-03-08T04:40:47;23.10;39.00
51613;DHT22;37694;51.748;14.326;2024-03-08T04:43:12;23.20;39.00
51613;DHT22;37694;51.748;14.326;2024-03-08T04:45:39;23.30;38.80
51613;DHT22;37694;51.748;14.326;2024-03-08T04:48:07;23.30;38.70
51613;DHT22;37694;51.748;14.326;2024-03-08T04:50:34;23.40;38.80
51613;DHT22;37694;51.748;14.326;2024-03-08T04:52:59;23.50;38.70
51613;DHT22;37694;51.748;14.326;2024-03-08T04:55:25;23.50;38.70
51613;DHT22;37694;51.748;14.326;2024-03-08T04:57:51;23.60;38.70
51613;DHT22;37694;51.748;14.326;2024-03-08T05:00:17;23.70;38.70
51613;DHT22;37694;51.748;14.326;2024-03-08T05:02:42;23.70;38.70
51613;DHT22;37694;51.748;14.326;2024-03-08T05:05:08;23.80;38.70
51613;DHT22;37694;51.748;14.326;2024-03-08T05:07:38;23.90;39.40
51613;DHT22;37694;51.748;14.326;2024-03-08T05:10:06;23.90;38.60
51613;DHT22;37694;51.748;14.326;2024-03-08T05:12:32;23.90;38.60
51613;DHT22;37694;51.748;14.326;2024-03-08T05:14:58;24.10;38.60
51613;DHT22;37694;51.748;14.326;2024-03-08T05:17:24;24.10;38.60
51613;DHT22;37694;51.748;14.326;2024-03-08T05:19:50;24.10;38.60
51613;DHT22;37694;51.748;14.326;2024-03-08T05:22:16;24.20;38.60
51613;DHT22;37694;51.748;14.326;2024-03-08T05:24:43;24.20;38.60
51613;DHT22;37694;51.748;14.326;2024-03-08T05:27:08;24.30;38.60
51613;DHT22;37694;51.748;14.326;2024-03-08T05:29:34;24.30;38.60
51613;DHT22;37694;51.748;14.326;2024-03-08T05:32:00;24.30;38.70
51613;DHT22;37694;51.748;14.326;2024-03-08T05:34:26;24.30;38.70
51613;DHT22;37694;51.748;14.326;2024-03-08T05:36:54;24.40;38.60
51613;DHT22;37694;51.748;14.326;2024-03-08T05:39:20;24.40;38.60
51613;DHT22;37694;51.748;14.326;2024-03-08T05:41:46;24.40;38.50
51613;DHT22;37694;51.748;14.326;2024-03-08T05:44:12;24.50;38.60
51613;DHT22;37694;51.748;14.326;2024-03-08T05:46:39;24.50;38.60
51613;DHT22;37694;51.748;14.326;2024-03-08T05:49:05;24.40;38.90
51613;DHT22;37694;51.748;14.326;2024-03-08T05:51:34;24.40;38.90
51613;DHT22;37694;51.748;14.326;2024-03-08T05:54:04;24.40;39.00
51613;DHT22;37694;51.748;14.326;2024-03-08T05:56:34;24.40;39.00
51613;DHT22;37694;51.748;14.326;2024-03-08T05:59:01;24.30;39.50
51613;DHT22;37694;51.748;14.326;2024-03-08T06:01:27;24.30;39.70
51613;DHT22;37694;51.748;14.326;2024-03-08T06:03:53;24.30;39.70
51613;DHT22;37694;51.748;14.326;2024-03-08T06:06:21;24.30;39.40
51613;DHT22;37694;51.748;14.326;2024-03-08T06:08:48;24.20;39.20
51613;DHT22;37694;51.748;14.326;2024-03-08T06:11:18;24.20;39.20
51613;DHT22;37694;51.748;14.326;2024-03-08T06:13:44;24.20;39.70
51613;DHT22;37694;51.748;14.326;2024-03-08T06:16:10;24.30;39.90
51613;DHT22;37694;51.748;14.326;2024-03-08T06:18:37;24.30;39.70
51613;DHT22;37694;51.748;14.326;2024-03-08T06:21:04;24.30;39.70
51613;DHT22;37694;51.748;14.326;2024-03-08T06:23:33;24.30;39.80
51613;DHT22;37694;51.748;14.326;2024-03-08T06:25:59;24.30;39.80
51613;DHT22;37694;51.748;14.326;2024-03-08T06:28:25;24.30;40.00
51613;DHT22;37694;51.748;14.326;2024-03-08T06:30:51;24.20;40.00
51613;DHT22;37694;51.748;14.326;2024-03-08T06:33:17;24.20;40.10
51613;DHT22;37694;51.748;14.326;2024-03-08T06:35:43;24.10;40.10
51613;DHT22;37694;51.748;14.326;2024-03-08T06:38:09;23.90;39.80
51613;DHT22;37694;51.748;14.326;2024-03-08T06:40:35;23.80;40.40
51613;DHT22;37694;51.748;14.326;2024-03-08T06:43:00;23.70;40.80
51613;DHT22;37694;51.748;14.326;2024-03-08T06:45:26;23.50;41.00
51613;DHT22;37694;51.748;14.326;2024-03-08T06:47:52;23.50;41.20
51613;DHT22;37694;51.748;14.326;2024-03-08T06:50:17;23.40;41.30
51613;DHT22;37694;51.748;14.326;2024-03-08T06:52:43;23.40;41.30
51613;DHT22;37694;51.748;14.326;2024-03-08T06:55:10;23.50;41.30
51613;DHT22;37694;51.748;14.326;2024-03-08T06:57:41;23.50;41.10
51613;DHT22;37694;51.748;14.326;2024-03-08T07:00:10;23.60;41.00
51613;DHT22;37694;51.748;14.326;2024-03-08T07:02:41;23.70;40.80
51613;DHT22;37694;51.748;14.326;2024-03-08T07:05:07;23.80;40.80
51613;DHT22;37694;51.748;14.326;2024-03-08T07:07:36;23.90;40.60
51613;DHT22;37694;51.748;14.326;2024-03-08T07:10:01;24.00;40.50
51613;DHT22;37694;51.748;14.326;2024-03-08T07:12:27;24.00;40.30
51613;DHT22;37694;51.748;14.326;2024-03-08T07:14:53;24.10;40.30
51613;DHT22;37694;51.748;14.326;2024-03-08T07:17:18;24.10;40.30
51613;DHT22;37694;51.748;14.326;2024-03-08T07:19:44;24.10;40.20
51613;DHT22;37694;51.748;14.326;2024-03-08T07:22:10;24.10;40.20
51613;DHT22;37694;51.748;14.326;2024-03-08T07:24:37;24.10;40.20
51613;DHT22;37694;51.748;14.326;2024-03-08T07:27:04;24.10;40.30
51613;DHT22;37694;51.748;14.326;2024-03-08T07:29:30;24.10;40.20
51613;DHT22;37694;51.748;14.326;2024-03-08T07:31:56;24.10;40.40
51613;DHT22;37694;51.748;14.326;2024-03-08T07:34:28;24.00;40.30
51613;DHT22;37694;51.748;14.326;2024-03-08T07:36:57;24.00;40.30
51613;DHT22;37694;51.748;14.326;2024-03-08T07:39:23;24.10;40.30
51613;DHT22;37694;51.748;14.326;2024-03-08T07:41:49;24.20;40.10
51613;DHT22;37694;51.748;14.326;2024-03-08T07:44:18;24.20;39.90
51613;DHT22;37694;51.748;14.326;2024-03-08T07:46:44;24.30;39.80
51613;DHT22;37694;51.748;14.326;2024-03-08T07:49:10;24.30;39.80
51613;DHT22;37694;51.748;14.326;2024-03-08T07:51:37;24.30;39.70
51613;DHT22;37694;51.748;14.326;2024-03-08T07:54:04;24.40;39.60
51613;DHT22;37694;51.748;14.326;2024-03-08T07:56:30;24.40;39.50
51613;DHT22;37694;51.748;14.326;2024-03-08T07:58:56;24.40;39.60
51613;DHT22;37694;51.748;14.326;2024-03-08T08:01:22;24.40;39.40
51613;DHT22;37694;51.748;14.326;2024-03-08T08:03:48;24.40;39.50
51613;DHT22;37694;51.748;14.326;2024-03-08T08:06:16;24.40;39.40
51613;DHT22;37694;51.748;14.326;2024-03-08T08:08:42;24.40;39.30
51613;DHT22;37694;51.748;14.326;2024-03-08T08:11:08;24.40;39.30
51613;DHT22;37694;51.748;14.326;2024-03-08T08:13:35;24.40;39.40
51613;DHT22;37694;51.748;14.326;2024-03-08T08:16:02;24.40;39.20
51613;DHT22;37694;51.748;14.326;2024-03-08T08:18:28;24.40;39.30
51613;DHT22;37694;51.748;14.326;2024-03-08T08:20:55;24.40;39.30
51613;DHT22;37694;51.748;14.326;2024-03-08T08:23:21;24.40;39.40
51613;DHT22;37694;51.748;14.326;2024-03-08T08:25:47;24.40;39.40
51613;DHT22;37694;51.748;14.326;2024-03-08T08:28:16;24.40;39.50
51613;DHT22;37694;51.748;14.326;2024-03-08T08:30:46;24.40;39.50
51613;DHT22;37694;51.748;14.326;2024-03-08T08:33:11;24.40;39.50
51613;DHT22;37694;51.748;14.326;2024-03-08T08:35:38;24.40;39.30
51613;DHT22;37694;51.748;14.326;2024-03-08T08:38:06;24.40;39.30
51613;DHT22;37694;51.748;14.326;2024-03-08T08:40:36;24.30;39.00
51613;DHT22;37694;51.748;14.326;2024-03-08T08:43:02;24.20;39.10
51613;DHT22;37694;51.748;14.326;2024-03-08T08:45:32;24.00;40.30
51613;DHT22;37694;51.748;14.326;2024-03-08T08:47:58;23.90;39.80
51613;DHT22;37694;51.748;14.326;2024-03-08T08:50:28;23.90;40.00
51613;DHT22;37694;51.748;14.326;2024-03-08T08:52:54;23.80;40.10
51613;DHT22;37694;51.748;14.326;2024-03-08T08:55:20;23.70;40.20
51613;DHT22;37694;51.748;14.326;2024-03-08T08:57:52;23.70;40.20
51613;DHT22;37694;51.748;14.326;2024-03-08T09:00:21;23.70;40.10
51613;DHT22;37694;51.748;14.326;2024-03-08T09:02:49;23.70;40.20
51613;DHT22;37694;51.748;14.326;2024-03-08T09:05:16;23.70;40.30
51613;DHT22;37694;51.748;14.326;2024-03-08T09:07:43;23.60;40.30
51613;DHT22;37694;51.748;14.326;2024-03-08T09:10:09;23.60;40.30
51613;DHT22;37694;51.748;14.326;2024-03-08T09:12:40;23.70;40.30
51613;DHT22;37694;51.748;14.326;2024-03-08T09:15:06;23.70;40.40
51613;DHT22;37694;51.748;14.326;2024-03-08T09:17:37;23.60;40.40
51613;DHT22;37694;51.748;14.326;2024-03-08T09:20:08;23.70;40.30
51613;DHT22;37694;51.748;14.326;2024-03-08T09:22:35;23.60;40.30
51613;DHT22;37694;51.748;14.326;2024-03-08T09:25:01;23.60;40.30
51613;DHT22;37694;51.748;14.326;2024-03-08T09:27:30;23.60;40.30
51613;DHT22;37694;51.748;14.326;2024-03-08T09:29:56;23.60;40.30
51613;DHT22;37694;51.748;14.326;2024-03-08T09:32:21;23.70;40.30
51613;DHT22;37694;51.748;14.326;2024-03-08T09:34:48;23.70;40.20
51613;DHT22;37694;51.748;14.326;2024-03-08T09:37:14;23.70;40.10
51613;DHT22;37694;51.748;14.326;2024-03-08T09:39:39;23.70;40.00
51613;DHT22;37694;51.748;14.326;2024-03-08T09:42:05;23.80;40.00
51613;DHT22;37694;51.748;14.326;2024-03-08T09:44:31;23.80;39.90
51613;DHT22;37694;51.748;14.326;2024-03-08T09:46:58;23.80;39.90
51613;DHT22;37694;51.748;14.326;2024-03-08T09:49:24;23.80;39.80
51613;DHT22;37694;51.748;14.326;2024-03-08T09:51:50;23.90;39.80
51613;DHT22;37694;51.748;14.326;2024-03-08T09:54:17;23.90;39.60
51613;DHT22;37694;51.748;14.326;2024-03-08T09:56:43;24.10;39.40
51613;DHT22;37694;51.748;14.326;2024-03-08T09:59:10;24.20;39.20
51613;DHT22;37694;51.748;14.326;2024-03-08T10:02:13;24.20;38.80
51613;DHT22;37694;51.748;14.326;2024-03-08T10:04:40;24.30;38.90
51613;DHT22;37694;51.748;14.326;2024-03-08T10:07:12;24.30;38.70
51613;DHT22;37694;51.748;14.326;2024-03-08T10:09:38;24.30;38.70
51613;DHT22;37694;51.748;14.326;2024-03-08T10:12:05;24.30;38.60
51613;DHT22;37694;51.748;14.326;2024-03-08T10:14:31;24.30;38.60
51613;DHT22;37694;51.748;14.326;2024-03-08T10:16:59;24.40;38.60
51613;DHT22;37694;51.748;14.326;2024-03-08T10:19:27;24.40;38.50
51613;DHT22;37694;51.748;14.326;2024-03-08T10:21:55;24.40;38.60
51613;DHT22;37694;51.748;14.326;2024-03-08T10:24:23;24.40;38.50
51613;DHT22;37694;51.748;14.326;2024-03-08T10:26:52;24.40;38.50
51613;DHT22;37694;51.748;14.326;2024-03-08T10:29:19;24.50;38.50
51613;DHT22;37694;51.748;14.326;2024-03-08T10:31:45;24.50;38.60
51613;DHT22;37694;51.748;14.326;2024-03-08T10:34:11;24.50;38.30
51613;DHT22;37694;51.748;14.326;2024-03-08T10:36:36;24.50;38.40
51613;DHT22;37694;51.748;14.326;2024-03-08T10:39:10;24.50;38.50
51613;DHT22;37694;51.748;14.326;2024-03-08T10:41:40;24.50;38.30
51613;DHT22;37694;51.748;14.326;2024-03-08T10:44:10;24.50;38.30
51613;DHT22;37694;51.748;14.326;2024-03-08T10:46:48;24.50;38.50
51613;DHT22;37694;51.748;14.326;2024-03-08T10:49:25;24.60;38.30
51613;DHT22;37694;51.748;14.326;2024-03-08T10:51:51;24.60;38.20
51613;DHT22;37694;51.748;14.326;2024-03-08T10:54:19;24.60;38.20
51613;DHT22;37694;51.748;14.326;2024-03-08T10:56:48;24.60;38.10
51613;DHT22;37694;51.748;14.326;2024-03-08T10:59:15;24.60;38.30
51613;DHT22;37694;51.748;14.326;2024-03-08T11:01:42;24.60;38.20
51613;DHT22;37694;51.748;14.326;2024-03-08T11:04:08;24.70;38.30
51613;DHT22;37694;51.748;14.326;2024-03-08T11:09:11;24.70;38.00
51613;DHT22;37694;51.748;14.326;2024-03-08T11:11:52;24.70;38.00
51613;DHT22;37694;51.748;14.326;2024-03-08T11:14:43;24.70;38.00
51613;DHT22;37694;51.748;14.326;2024-03-08T11:17:09;24.70;38.10
51613;DHT22;37694;51.748;14.326;2024-03-08T11:19:35;24.70;38.00
51613;DHT22;37694;51.748;14.326;2024-03-08T11:22:04;24.70;38.10
51613;DHT22;37694;51.748;14.326;2024-03-08T11:24:39;24.70;38.00
51613;DHT22;37694;51.748;14.326;2024-03-08T11:27:05;24.70;38.00
51613;DHT22;37694;51.748;14.326;2024-03-08T11:29:33;24.70;37.90
51613;DHT22;37694;51.748;14.326;2024-03-08T11:32:15;24.80;38.00
51613;DHT22;37694;51.748;14.326;2024-03-08T11:34:48;24.80;37.90
51613;DHT22;37694;51.748;14.326;2024-03-08T11:37:18;24.80;37.90
51613;DHT22;37694;51.748;14.326;2024-03-08T11:39:53;24.80;37.80
51613;DHT22;37694;51.748;14.326;2024-03-08T11:42:25;24.80;37.80
51613;DHT22;37694;51.748;14.326;2024-03-08T11:44:54;24.80;37.90
51613;DHT22;37694;51.748;14.326;2024-03-08T11:47:20;24.80;37.70
51613;DHT22;37694;51.748;14.326;2024-03-08T11:49:46;24.90;37.70
51613;DHT22;37694;51.748;14.326;2024-03-08T11:52:15;24.80;37.60
51613;DHT22;37694;51.748;14.326;2024-03-08T11:54:42;24.90;37.70
51613;DHT22;37694;51.748;14.326;2024-03-08T11:57:09;24.80;37.70
51613;DHT22;37694;51.748;14.326;2024-03-08T11:59:36;24.90;37.60
51613;DHT22;37694;51.748;14.326;2024-03-08T12:02:03;24.90;37.70
51613;DHT22;37694;51.748;14.326;2024-03-08T12:04:30;24.90;37.80
51613;DHT22;37694;51.748;14.326;2024-03-08T12:06:59;24.90;37.80
51613;DHT22;37694;51.748;14.326;2024-03-08T12:09:26;24.90;37.70
51613;DHT22;37694;51.748;14.326;2024-03-08T12:11:52;24.90;37.70
51613;DHT22;37694;51.748;14.326;2024-03-08T12:14:18;24.90;37.70
51613;DHT22;37694;51.748;14.326;2024-03-08T12:16:44;24.90;37.70
51613;DHT22;37694;51.748;14.326;2024-03-08T12:19:10;24.90;37.70
51613;DHT22;37694;51.748;14.326;2024-03-08T12:21:36;24.90;37.70
51613;DHT22;37694;51.748;14.326;2024-03-08T12:24:06;25.00;37.70
51613;DHT22;37694;51.748;14.326;2024-03-08T12:26:35;25.00;37.60
51613;DHT22;37694;51.748;14.326;2024-03-08T12:29:21;25.00;37.70
51613;DHT22;37694;51.748;14.326;2024-03-08T12:31:58;25.00;37.50
51613;DHT22;37694;51.748;14.326;2024-03-08T12:34:26;24.90;37.70
51613;DHT22;37694;51.748;14.326;2024-03-08T12:36:54;24.90;37.70
51613;DHT22;37694;51.748;14.326;2024-03-08T12:39:21;24.90;37.80
51613;DHT22;37694;51.748;14.326;2024-03-08T12:41:48;25.00;37.90
51613;DHT22;37694;51.748;14.326;2024-03-08T12:44:17;25.00;38.10
51613;DHT22;37694;51.748;14.326;2024-03-08T12:46:44;25.00;38.10
51613;DHT22;37694;51.748;14.326;2024-03-08T12:49:10;25.00;37.60
51613;DHT22;37694;51.748;14.326;2024-03-08T12:51:38;24.90;37.90
51613;DHT22;37694;51.748;14.326;2024-03-08T12:54:05;24.70;38.20
51613;DHT22;37694;51.748;14.326;2024-03-08T12:56:33;24.70;38.50
51613;DHT22;37694;51.748;14.326;2024-03-08T12:59:00;24.70;38.60
51613;DHT22;37694;51.748;14.326;2024-03-08T13:01:26;24.60;38.70
51613;DHT22;37694;51.748;14.326;2024-03-08T13:03:53;24.60;38.70
51613;DHT22;37694;51.748;14.326;2024-03-08T13:06:19;24.70;38.70
51613;DHT22;37694;51.748;14.326;2024-03-08T13:08:50;24.80;38.40
51613;DHT22;37694;51.748;14.326;2024-03-08T13:11:17;24.90;38.40
51613;DHT22;37694;51.748;14.326;2024-03-08T13:13:44;24.90;38.10
51613;DHT22;37694;51.748;14.326;2024-03-08T13:16:10;25.00;38.00
51613;DHT22;37694;51.748;14.326;2024-03-08T13:18:38;25.00;38.10
51613;DHT22;37694;51.748;14.326;2024-03-08T13:21:04;25.10;38.10
51613;DHT22;37694;51.748;14.326;2024-03-08T13:23:33;25.10;38.10
51613;DHT22;37694;51.748;14.326;2024-03-08T13:26:07;25.10;38.00
51613;DHT22;37694;51.748;14.326;2024-03-08T13:28:33;25.10;38.00
51613;DHT22;37694;51.748;14.326;2024-03-08T13:31:04;25.10;37.90
51613;DHT22;37694;51.748;14.326;2024-03-08T13:33:35;25.10;37.90
51613;DHT22;37694;51.748;14.326;2024-03-08T13:36:10;25.10;37.90
51613;DHT22;37694;51.748;14.326;2024-03-08T13:38:47;25.10;37.90
51613;DHT22;37694;51.748;14.326;2024-03-08T13:41:14;25.10;37.90
51613;DHT22;37694;51.748;14.326;2024-03-08T13:43:42;25.10;37.80
51613;DHT22;37694;51.748;14.326;2024-03-08T13:46:08;25.10;37.80
51613;DHT22;37694;51.748;14.326;2024-03-08T13:48:36;25.10;37.80
51613;DHT22;37694;51.748;14.326;2024-03-08T13:51:03;25.10;37.80
51613;DHT22;37694;51.748;14.326;2024-03-08T13:53:31;25.10;37.80
51613;DHT22;37694;51.748;14.326;2024-03-08T13:55:58;25.10;37.80
51613;DHT22;37694;51.748;14.326;2024-03-08T13:58:24;25.00;37.70
51613;DHT22;37694;51.748;14.326;2024-03-08T14:00:49;25.10;37.80
51613;DHT22;37694;51.748;14.326;2024-03-08T14:03:17;25.00;37.80
51613;DHT22;37694;51.748;14.326;2024-03-08T14:05:43;25.00;37.80
51613;DHT22;37694;51.748;14.326;2024-03-08T14:08:11;25.00;37.80
51613;DHT22;37694;51.748;14.326;2024-03-08T14:10:38;24.90;37.70
51613;DHT22;37694;51.748;14.326;2024-03-08T14:13:04;24.90;37.70
51613;DHT22;37694;51.748;14.326;2024-03-08T14:15:34;24.90;37.80
51613;DHT22;37694;51.748;14.326;2024-03-08T14:18:07;25.00;37.80
51613;DHT22;37694;51.748;14.326;2024-03-08T14:20:33;24.90;37.70
51613;DHT22;37694;51.748;14.326;2024-03-08T14:22:58;24.90;37.80
51613;DHT22;37694;51.748;14.326;2024-03-08T14:25:24;24.90;37.80
51613;DHT22;37694;51.748;14.326;2024-03-08T14:27:51;24.90;37.80
51613;DHT22;37694;51.748;14.326;2024-03-08T14:30:23;24.90;37.90
51613;DHT22;37694;51.748;14.326;2024-03-08T14:33:01;24.90;37.90
51613;DHT22;37694;51.748;14.326;2024-03-08T14:35:27;24.80;37.90
51613;DHT22;37694;51.748;14.326;2024-03-08T14:37:55;24.80;37.70
51613;DHT22;37694;51.748;14.326;2024-03-08T14:40:22;24.80;37.80
51613;DHT22;37694;51.748;14.326;2024-03-08T14:42:49;24.80;37.90
51613;DHT22;37694;51.748;14.326;2024-03-08T14:45:16;24.70;37.90
51613;DHT22;37694;51.748;14.326;2024-03-08T14:47:48;24.80;37.90
51613;DHT22;37694;51.748;14.326;2024-03-08T14:50:23;24.70;37.80
51613;DHT22;37694;51.748;14.326;2024-03-08T14:52:51;24.70;37.80
51613;DHT22;37694;51.748;14.326;2024-03-08T14:55:20;24.70;37.80
51613;DHT22;37694;51.748;14.326;2024-03-08T14:57:50;24.70;37.80
51613;DHT22;37694;51.748;14.326;2024-03-08T15:00:20;24.60;37.80
51613;DHT22;37694;51.748;14.326;2024-03-08T15:03:01;24.60;37.90
51613;DHT22;37694;51.748;14.326;2024-03-08T15:05:35;24.60;38.00
51613;DHT22;37694;51.748;14.326;2024-03-08T15:08:07;24.60;38.00
51613;DHT22;37694;51.748;14.326;2024-03-08T15:10:36;24.50;37.90
51613;DHT22;37694;51.748;14.326;2024-03-08T15:13:02;24.50;37.90
51613;DHT22;37694;51.748;14.326;2024-03-08T15:15:38;24.50;37.90
51613;DHT22;37694;51.748;14.326;2024-03-08T15:18:08;24.50;38.00
51613;DHT22;37694;51.748;14.326;2024-03-08T15:20:33;24.40;38.00